sensor_id;sensor_type;location;lat;lon;timestamp;temperature;humidity
19734;DHT22;10018;51.230;7.860;2022-11-20T00:01:07;-0.80;99.90
19734;DHT22;10018;51.230;7.860;2022-11-20T00:03:32;-0.80;99.90
19734;DHT22;10018;51.230;7.860;2022-11-20T00:06:07;-0.70;99.90
19734;DHT22;10018;51.230;7.860;2022-11-20T00:08:33;-0.70;99.90
19734;DHT22;10018;51.230;7.860;2022-11-20T00:11:13;-0.70;99.90
19734;DHT22;10018;51.230;7.860;2022-11-20T00:13:39;-0.70;99.90
19734;DHT22;10018;51.230;7.860;2022-11-20T00:16:07;-0.60;99.90
19734;DHT22;10018;51.230;7.860;2022-11-20T00:18:34;-0.60;99.90
19734;DHT22;10018;51.230;7.860;2022-11-20T00:21:07;-0.70;99.90
19734;DHT22;10018;51.230;7.860;2022-11-20T00:23:35;-0.60;99.90
19734;DHT22;10018;51.230;7.860;2022-11-20T00:26:05;-0.60;99.90
19734;DHT22;10018;51.230;7.860;2022-11-20T00:28:31;-0.60;99.90
19734;DHT22;10018;51.230;7.860;2022-11-20T00:31:09;-0.60;99.90
19734;DHT22;10018;51.230;7.860;2022-11-20T00:33:36;-0.60;99.90
19734;DHT22;10018;51.230;7.860;2022-11-20T00:36:03;-0.60;99.90
19734;DHT22;10018;51.230;7.860;2022-11-20T00:38:30;-0.60;99.90
19734;DHT22;10018;51.230;7.860;2022-11-20T00:40:57;-0.70;99.90
19734;DHT22;10018;51.230;7.860;2022-11-20T00:43:23;-0.60;99.90
19734;DHT22;10018;51.230;7.860;2022-11-20T00:45:49;-0.60;99.90
19734;DHT22;10018;51.230;7.860;2022-11-20T00:48:15;-0.60;99.90
19734;DHT22;10018;51.230;7.860;2022-11-20T00:50:41;-0.60;99.90
19734;DHT22;10018;51.230;7.860;2022-11-20T00:53:06;-0.60;99.90
19734;DHT22;10018;51.230;7.860;2022-11-20T00:55:32;-0.50;99.90
19734;DHT22;10018;51.230;7.860;2022-11-20T00:57:58;-0.40;99.90
19734;DHT22;10018;51.230;7.860;2022-11-20T01:00:23;-0.40;99.90
19734;DHT22;10018;51.230;7.860;2022-11-20T01:02:49;-0.40;99.90
19734;DHT22;10018;51.230;7.860;2022-11-20T01:05:14;-0.40;99.90
19734;DHT22;10018;51.230;7.860;2022-11-20T01:07:39;-0.30;99.90
19734;DHT22;10018;51.230;7.860;2022-11-20T01:10:06;-0.30;99.90
19734;DHT22;10018;51.230;7.860;2022-11-20T01:12:31;-0.30;99.90
19734;DHT22;10018;51.230;7.860;2022-11-20T01:14:57;-0.30;99.90
19734;DHT22;10018;51.230;7.860;2022-11-20T01:17:22;-0.30;99.90
19734;DHT22;10018;51.230;7.860;2022-11-20T01:19:51;-0.30;99.90
19734;DHT22;10018;51.230;7.860;2022-11-20T01:22:16;-0.30;99.90
19734;DHT22;10018;51.230;7.860;2022-11-20T01:24:42;-0.20;99.90
19734;DHT22;10018;51.230;7.860;2022-11-20T01:27:07;-0.40;99.90
19734;DHT22;10018;51.230;7.860;2022-11-20T01:29:33;-0.40;99.90
19734;DHT22;10018;51.230;7.860;2022-11-20T01:31:58;-0.40;99.90
19734;DHT22;10018;51.230;7.860;2022-11-20T01:34:24;-0.30;99.90
19734;DHT22;10018;51.230;7.860;2022-11-20T01:36:51;-0.30;99.90
19734;DHT22;10018;51.230;7.860;2022-11-20T01:39:25;-0.30;99.90
19734;DHT22;10018;51.230;7.860;2022-11-20T01:41:55;-0.30;99.90
19734;DHT22;10018;51.230;7.860;2022-11-20T01:47:52;-0.40;99.90
19734;DHT22;10018;51.230;7.860;2022-11-20T01:50:26;-0.30;99.90
19734;DHT22;10018;51.230;7.860;2022-11-20T01:53:03;-0.30;99.90
19734;DHT22;10018;51.230;7.860;2022-11-20T01:55:37;-0.20;99.90
19734;DHT22;10018;51.230;7.860;2022-11-20T01:58:05;-0.30;99.90
19734;DHT22;10018;51.230;7.860;2022-11-20T02:00:31;-0.20;99.90
19734;DHT22;10018;51.230;7.860;2022-11-20T02:03:00;-0.30;99.90
19734;DHT22;10018;51.230;7.860;2022-11-20T02:08:05;-0.20;99.90
19734;DHT22;10018;51.230;7.860;2022-11-20T02:10:31;-0.20;99.90
19734;DHT22;10018;51.230;7.860;2022-11-20T02:12:57;-0.20;99.90
19734;DHT22;10018;51.230;7.860;2022-11-20T02:15:41;-0.20;99.90
19734;DHT22;10018;51.230;7.860;2022-11-20T02:18:07;-0.20;99.90
19734;DHT22;10018;51.230;7.860;2022-11-20T02:20:34;-0.20;99.90
19734;DHT22;10018;51.230;7.860;2022-11-20T02:23:05;-0.20;99.90
19734;DHT22;10018;51.230;7.860;2022-11-20T02:25:35;-0.20;99.90
19734;DHT22;10018;51.230;7.860;2022-11-20T02:28:02;-0.10;99.90
19734;DHT22;10018;51.230;7.860;2022-11-20T02:30:27;-0.10;99.90
19734;DHT22;10018;51.230;7.860;2022-11-20T02:32:53;-0.10;99.90
19734;DHT22;10018;51.230;7.860;2022-11-20T02:37:45;-0.10;99.90
19734;DHT22;10018;51.230;7.860;2022-11-20T02:40:13;0.00;99.90
19734;DHT22;10018;51.230;7.860;2022-11-20T02:42:38;-0.10;99.90
19734;DHT22;10018;51.230;7.860;2022-11-20T02:45:05;0.00;99.90
19734;DHT22;10018;51.230;7.860;2022-11-20T02:47:31;0.10;99.90
19734;DHT22;10018;51.230;7.860;2022-11-20T02:49:57;0.10;99.90
19734;DHT22;10018;51.230;7.860;2022-11-20T02:52:22;0.10;99.90
19734;DHT22;10018;51.230;7.860;2022-11-20T02:54:48;0.20;99.90
19734;DHT22;10018;51.230;7.860;2022-11-20T02:57:13;0.20;99.90
19734;DHT22;10018;51.230;7.860;2022-11-20T02:59:39;0.20;99.90
19734;DHT22;10018;51.230;7.860;2022-11-20T03:02:05;0.20;99.90
19734;DHT22;10018;51.230;7.860;2022-11-20T03:04:30;0.20;99.90
19734;DHT22;10018;51.230;7.860;2022-11-20T03:06:56;0.20;99.90
19734;DHT22;10018;51.230;7.860;2022-11-20T03:09:21;0.20;99.90
19734;DHT22;10018;51.230;7.860;2022-11-20T03:11:47;0.20;99.90
19734;DHT22;10018;51.230;7.860;2022-11-20T03:14:13;0.20;99.90
19734;DHT22;10018;51.230;7.860;2022-11-20T03:16:38;0.20;99.90
19734;DHT22;10018;51.230;7.860;2022-11-20T03:19:04;0.20;99.90
19734;DHT22;10018;51.230;7.860;2022-11-20T03:21:29;0.20;99.90
19734;DHT22;10018;51.230;7.860;2022-11-20T03:23:55;0.20;99.90
19734;DHT22;10018;51.230;7.860;2022-11-20T03:26:23;0.20;99.90
19734;DHT22;10018;51.230;7.860;2022-11-20T03:28:51;0.20;99.90
19734;DHT22;10018;51.230;7.860;2022-11-20T03:31:19;0.10;99.90
19734;DHT22;10018;51.230;7.860;2022-11-20T03:33:45;0.10;99.90
19734;DHT22;10018;51.230;7.860;2022-11-20T03:36:12;0.10;99.90
19734;DHT22;10018;51.230;7.860;2022-11-20T03:38:38;0.10;99.90
19734;DHT22;10018;51.230;7.860;2022-11-20T03:41:08;0.00;99.90
19734;DHT22;10018;51.230;7.860;2022-11-20T03:43:34;0.00;99.90
19734;DHT22;10018;51.230;7.860;2022-11-20T03:46:00;0.00;99.90
19734;DHT22;10018;51.230;7.860;2022-11-20T03:48:26;0.00;99.90
19734;DHT22;10018;51.230;7.860;2022-11-20T03:50:53;-0.10;99.90
19734;DHT22;10018;51.230;7.860;2022-11-20T03:53:31;-0.10;99.90
19734;DHT22;10018;51.230;7.860;2022-11-20T03:55:56;-0.10;99.90
19734;DHT22;10018;51.230;7.860;2022-11-20T03:58:22;0.00;99.90
19734;DHT22;10018;51.230;7.860;2022-11-20T04:00:47;0.00;99.90
19734;DHT22;10018;51.230;7.860;2022-11-20T04:03:13;0.00;99.90
19734;DHT22;10018;51.230;7.860;2022-11-20T04:05:38;0.00;99.90
19734;DHT22;10018;51.230;7.860;2022-11-20T04:08:04;0.00;99.90
19734;DHT22;10018;51.230;7.860;2022-11-20T04:10:30;0.00;99.90
19734;DHT22;10018;51.230;7.860;2022-11-20T04:12:55;0.00;99.90
19734;DHT22;10018;51.230;7.860;2022-11-20T04:15:21;0.00;99.90
19734;DHT22;10018;51.230;7.860;2022-11-20T04:17:46;-0.10;99.90
19734;DHT22;10018;51.230;7.860;2022-11-20T04:20:12;-0.10;99.90
19734;DHT22;10018;51.230;7.860;2022-11-20T04:22:37;-0.10;99.90
19734;DHT22;10018;51.230;7.860;2022-11-20T04:25:03;-0.10;99.90
19734;DHT22;10018;51.230;7.860;2022-11-20T04:27:30;-0.10;99.90
19734;DHT22;10018;51.230;7.860;2022-11-20T04:29:56;-0.10;99.90
19734;DHT22;10018;51.230;7.860;2022-11-20T04:32:21;0.00;99.90
19734;DHT22;10018;51.230;7.860;2022-11-20T04:34:47;0.00;99.90
19734;DHT22;10018;51.230;7.860;2022-11-20T04:37:12;0.00;99.90
19734;DHT22;10018;51.230;7.860;2022-11-20T04:39:38;-0.10;99.90
19734;DHT22;10018;51.230;7.860;2022-11-20T04:42:03;-0.10;99.90
19734;DHT22;10018;51.230;7.860;2022-11-20T04:44:48;-0.10;99.90
19734;DHT22;10018;51.230;7.860;2022-11-20T04:47:14;-0.10;99.90
19734;DHT22;10018;51.230;7.860;2022-11-20T04:49:39;0.00;99.90
19734;DHT22;10018;51.230;7.860;2022-11-20T04:52:05;0.00;99.90
19734;DHT22;10018;51.230;7.860;2022-11-20T04:54:30;0.00;99.90
19734;DHT22;10018;51.230;7.860;2022-11-20T04:56:56;0.00;99.90
19734;DHT22;10018;51.230;7.860;2022-11-20T04:59:22;0.10;99.90
19734;DHT22;10018;51.230;7.860;2022-11-20T05:01:47;0.10;99.90
19734;DHT22;10018;51.230;7.860;2022-11-20T05:04:13;0.10;99.90
19734;DHT22;10018;51.230;7.860;2022-11-20T05:06:38;0.10;99.90
19734;DHT22;10018;51.230;7.860;2022-11-20T05:09:03;0.10;99.90
19734;DHT22;10018;51.230;7.860;2022-11-20T05:11:29;0.00;99.90
19734;DHT22;10018;51.230;7.860;2022-11-20T05:13:58;0.00;99.90
19734;DHT22;10018;51.230;7.860;2022-11-20T05:16:24;0.10;99.90
19734;DHT22;10018;51.230;7.860;2022-11-20T05:18:51;0.10;99.90
19734;DHT22;10018;51.230;7.860;2022-11-20T05:21:17;0.10;99.90
19734;DHT22;10018;51.230;7.860;2022-11-20T05:23:44;0.10;99.90
19734;DHT22;10018;51.230;7.860;2022-11-20T05:26:28;0.20;99.90
19734;DHT22;10018;51.230;7.860;2022-11-20T05:28:53;0.20;99.90
19734;DHT22;10018;51.230;7.860;2022-11-20T05:31:23;0.20;99.90
19734;DHT22;10018;51.230;7.860;2022-11-20T05:33:49;0.20;99.90
19734;DHT22;10018;51.230;7.860;2022-11-20T05:36:15;0.10;99.90
19734;DHT22;10018;51.230;7.860;2022-11-20T05:38:41;0.10;99.90
19734;DHT22;10018;51.230;7.860;2022-11-20T05:41:09;0.20;99.90
19734;DHT22;10018;51.230;7.860;2022-11-20T05:43:37;0.20;99.90
19734;DHT22;10018;51.230;7.860;2022-11-20T05:46:04;0.20;99.90
19734;DHT22;10018;51.230;7.860;2022-11-20T05:48:30;0.10;99.90
19734;DHT22;10018;51.230;7.860;2022-11-20T05:51:00;0.20;99.90
19734;DHT22;10018;51.230;7.860;2022-11-20T05:53:26;0.20;99.90
19734;DHT22;10018;51.230;7.860;2022-11-20T05:56:06;0.30;99.90
19734;DHT22;10018;51.230;7.860;2022-11-20T05:58:32;0.30;99.90
19734;DHT22;10018;51.230;7.860;2022-11-20T06:01:10;0.40;99.90
19734;DHT22;10018;51.230;7.860;2022-11-20T06:03:36;0.30;99.90
19734;DHT22;10018;51.230;7.860;2022-11-20T06:06:04;0.30;99.90
19734;DHT22;10018;51.230;7.860;2022-11-20T06:08:30;0.20;99.90
19734;DHT22;10018;51.230;7.860;2022-11-20T06:10:56;0.20;99.90
19734;DHT22;10018;51.230;7.860;2022-11-20T06:13:22;0.20;99.90
19734;DHT22;10018;51.230;7.860;2022-11-20T06:15:51;0.30;99.90
19734;DHT22;10018;51.230;7.860;2022-11-20T06:18:17;0.40;99.90
19734;DHT22;10018;51.230;7.860;2022-11-20T06:20:42;0.40;99.90
19734;DHT22;10018;51.230;7.860;2022-11-20T06:23:08;0.40;99.90
19734;DHT22;10018;51.230;7.860;2022-11-20T06:25:40;0.40;99.90
19734;DHT22;10018;51.230;7.860;2022-11-20T06:28:06;0.40;99.90
19734;DHT22;10018;51.230;7.860;2022-11-20T06:30:31;0.50;99.90
19734;DHT22;10018;51.230;7.860;2022-11-20T06:32:57;0.50;99.90
19734;DHT22;10018;51.230;7.860;2022-11-20T06:35:22;0.60;99.90
19734;DHT22;10018;51.230;7.860;2022-11-20T06:37:48;0.60;99.90
19734;DHT22;10018;51.230;7.860;2022-11-20T06:40:13;0.60;99.90
19734;DHT22;10018;51.230;7.860;2022-11-20T06:42:39;0.60;99.90
19734;DHT22;10018;51.230;7.860;2022-11-20T06:45:05;0.60;99.90
19734;DHT22;10018;51.230;7.860;2022-11-20T06:47:30;0.60;99.90
19734;DHT22;10018;51.230;7.860;2022-11-20T06:49:56;0.60;99.90
19734;DHT22;10018;51.230;7.860;2022-11-20T06:52:21;0.50;99.90
19734;DHT22;10018;51.230;7.860;2022-11-20T06:54:47;0.60;99.90
19734;DHT22;10018;51.230;7.860;2022-11-20T06:57:12;0.60;99.90
19734;DHT22;10018;51.230;7.860;2022-11-20T06:59:38;0.60;99.90
19734;DHT22;10018;51.230;7.860;2022-11-20T07:02:03;0.60;99.90
19734;DHT22;10018;51.230;7.860;2022-11-20T07:04:29;0.70;99.90
19734;DHT22;10018;51.230;7.860;2022-11-20T07:06:54;0.60;99.90
19734;DHT22;10018;51.230;7.860;2022-11-20T07:09:20;0.60;99.90
19734;DHT22;10018;51.230;7.860;2022-11-20T07:11:45;0.60;99.90
19734;DHT22;10018;51.230;7.860;2022-11-20T07:14:10;0.60;99.90
19734;DHT22;10018;51.230;7.860;2022-11-20T07:16:36;0.60;99.90
19734;DHT22;10018;51.230;7.860;2022-11-20T07:19:01;0.70;99.90
19734;DHT22;10018;51.230;7.860;2022-11-20T07:21:27;0.70;99.90
19734;DHT22;10018;51.230;7.860;2022-11-20T07:23:52;0.80;99.90
19734;DHT22;10018;51.230;7.860;2022-11-20T07:26:18;0.80;99.90
19734;DHT22;10018;51.230;7.860;2022-11-20T07:28:44;0.80;99.90
19734;DHT22;10018;51.230;7.860;2022-11-20T07:31:10;0.80;99.90
19734;DHT22;10018;51.230;7.860;2022-11-20T07:33:37;0.80;99.90
19734;DHT22;10018;51.230;7.860;2022-11-20T07:36:03;0.80;99.90
19734;DHT22;10018;51.230;7.860;2022-11-20T07:38:30;0.90;99.90
19734;DHT22;10018;51.230;7.860;2022-11-20T07:40:58;0.90;99.90
19734;DHT22;10018;51.230;7.860;2022-11-20T07:43:26;0.90;99.90
19734;DHT22;10018;51.230;7.860;2022-11-20T07:45:55;0.90;99.90
19734;DHT22;10018;51.230;7.860;2022-11-20T07:48:21;0.90;99.90
19734;DHT22;10018;51.230;7.860;2022-11-20T07:50:46;1.00;99.90
19734;DHT22;10018;51.230;7.860;2022-11-20T07:53:12;1.00;99.90
19734;DHT22;10018;51.230;7.860;2022-11-20T07:55:39;1.00;99.90
19734;DHT22;10018;51.230;7.860;2022-11-20T07:58:05;0.90;99.90
19734;DHT22;10018;51.230;7.860;2022-11-20T08:00:30;1.00;99.90
19734;DHT22;10018;51.230;7.860;2022-11-20T08:02:56;1.00;99.90
19734;DHT22;10018;51.230;7.860;2022-11-20T08:05:21;1.10;99.90
19734;DHT22;10018;51.230;7.860;2022-11-20T08:07:47;1.10;99.90
19734;DHT22;10018;51.230;7.860;2022-11-20T08:10:14;1.10;99.90
19734;DHT22;10018;51.230;7.860;2022-11-20T08:12:49;1.20;99.90
19734;DHT22;10018;51.230;7.860;2022-11-20T08:15:33;1.20;99.90
19734;DHT22;10018;51.230;7.860;2022-11-20T08:18:07;1.20;99.90
19734;DHT22;10018;51.230;7.860;2022-11-20T08:20:33;1.30;99.90
19734;DHT22;10018;51.230;7.860;2022-11-20T08:23:00;1.20;99.90
19734;DHT22;10018;51.230;7.860;2022-11-20T08:25:30;1.30;99.90
19734;DHT22;10018;51.230;7.860;2022-11-20T08:27:59;1.30;99.90
19734;DHT22;10018;51.230;7.860;2022-11-20T08:30:25;1.30;99.90
19734;DHT22;10018;51.230;7.860;2022-11-20T08:32:50;1.30;99.90
19734;DHT22;10018;51.230;7.860;2022-11-20T08:35:16;1.40;99.90
19734;DHT22;10018;51.230;7.860;2022-11-20T08:37:41;1.40;99.90
19734;DHT22;10018;51.230;7.860;2022-11-20T08:40:09;1.40;99.90
19734;DHT22;10018;51.230;7.860;2022-11-20T08:42:35;1.50;99.90
19734;DHT22;10018;51.230;7.860;2022-11-20T08:45:01;1.50;99.90
19734;DHT22;10018;51.230;7.860;2022-11-20T08:47:27;1.50;99.90
19734;DHT22;10018;51.230;7.860;2022-11-20T08:49:52;1.50;99.90
19734;DHT22;10018;51.230;7.860;2022-11-20T08:52:18;1.50;99.90
19734;DHT22;10018;51.230;7.860;2022-11-20T08:54:43;1.40;99.90
19734;DHT22;10018;51.230;7.860;2022-11-20T08:57:09;1.50;99.90
19734;DHT22;10018;51.230;7.860;2022-11-20T08:59:34;1.40;99.90
19734;DHT22;10018;51.230;7.860;2022-11-20T09:01:59;1.50;99.90
19734;DHT22;10018;51.230;7.860;2022-11-20T09:04:25;1.60;99.90
19734;DHT22;10018;51.230;7.860;2022-11-20T09:06:50;1.60;99.90
19734;DHT22;10018;51.230;7.860;2022-11-20T09:09:17;1.50;99.90
19734;DHT22;10018;51.230;7.860;2022-11-20T09:11:43;1.60;99.90
19734;DHT22;10018;51.230;7.860;2022-11-20T09:14:09;1.60;99.90
19734;DHT22;10018;51.230;7.860;2022-11-20T09:16:34;1.60;99.90
19734;DHT22;10018;51.230;7.860;2022-11-20T09:19:00;1.70;99.90
19734;DHT22;10018;51.230;7.860;2022-11-20T09:21:25;1.70;99.90
19734;DHT22;10018;51.230;7.860;2022-11-20T09:23:51;1.70;99.90
19734;DHT22;10018;51.230;7.860;2022-11-20T09:26:16;1.70;99.90
19734;DHT22;10018;51.230;7.860;2022-11-20T09:28:42;1.80;99.90
19734;DHT22;10018;51.230;7.860;2022-11-20T09:31:09;1.80;99.90
19734;DHT22;10018;51.230;7.860;2022-11-20T09:33:38;1.80;99.90
19734;DHT22;10018;51.230;7.860;2022-11-20T09:36:04;1.90;99.90
19734;DHT22;10018;51.230;7.860;2022-11-20T09:38:30;2.00;99.90
19734;DHT22;10018;51.230;7.860;2022-11-20T09:41:03;2.00;99.90
19734;DHT22;10018;51.230;7.860;2022-11-20T09:44:04;2.20;99.90
19734;DHT22;10018;51.230;7.860;2022-11-20T09:47:03;2.10;99.90
19734;DHT22;10018;51.230;7.860;2022-11-20T09:49:59;2.00;99.90
19734;DHT22;10018;51.230;7.860;2022-11-20T09:53:05;2.00;99.90
19734;DHT22;10018;51.230;7.860;2022-11-20T09:55:34;2.00;99.90
19734;DHT22;10018;51.230;7.860;2022-11-20T09:58:00;1.90;99.90
19734;DHT22;10018;51.230;7.860;2022-11-20T10:00:27;1.90;99.90
19734;DHT22;10018;51.230;7.860;2022-11-20T10:05:53;2.00;99.90
19734;DHT22;10018;51.230;7.860;2022-11-20T10:08:29;2.00;99.90
19734;DHT22;10018;51.230;7.860;2022-11-20T10:11:17;2.10;99.90
19734;DHT22;10018;51.230;7.860;2022-11-20T10:20:01;2.10;99.90
19734;DHT22;10018;51.230;7.860;2022-11-20T10:22:35;2.20;99.90
19734;DHT22;10018;51.230;7.860;2022-11-20T10:25:18;2.20;99.90
19734;DHT22;10018;51.230;7.860;2022-11-20T10:28:10;2.30;99.90
19734;DHT22;10018;51.230;7.860;2022-11-20T10:30:42;2.40;99.90
19734;DHT22;10018;51.230;7.860;2022-11-20T10:33:17;2.50;99.90
19734;DHT22;10018;51.230;7.860;2022-11-20T10:35:53;2.70;99.90
19734;DHT22;10018;51.230;7.860;2022-11-20T10:38:25;2.60;99.90
19734;DHT22;10018;51.230;7.860;2022-11-20T10:40:54;2.70;99.90
19734;DHT22;10018;51.230;7.860;2022-11-20T10:43:41;2.60;99.90
19734;DHT22;10018;51.230;7.860;2022-11-20T10:46:13;2.70;99.90
19734;DHT22;10018;51.230;7.860;2022-11-20T10:48:43;2.80;99.90
19734;DHT22;10018;51.230;7.860;2022-11-20T10:51:18;2.90;99.90
19734;DHT22;10018;51.230;7.860;2022-11-20T10:56:50;2.90;99.90
19734;DHT22;10018;51.230;7.860;2022-11-20T10:59:43;3.00;99.90
19734;DHT22;10018;51.230;7.860;2022-11-20T11:02:31;3.10;99.90
19734;DHT22;10018;51.230;7.860;2022-11-20T11:05:08;3.10;99.90
19734;DHT22;10018;51.230;7.860;2022-11-20T11:07:38;3.10;99.90
19734;DHT22;10018;51.230;7.860;2022-11-20T11:10:18;3.20;99.90
19734;DHT22;10018;51.230;7.860;2022-11-20T11:12:46;3.30;99.90
19734;DHT22;10018;51.230;7.860;2022-11-20T11:15:25;3.30;99.90
19734;DHT22;10018;51.230;7.860;2022-11-20T11:17:52;3.30;99.90
19734;DHT22;10018;51.230;7.860;2022-11-20T11:20:19;3.30;99.90
19734;DHT22;10018;51.230;7.860;2022-11-20T11:22:48;3.40;99.90
19734;DHT22;10018;51.230;7.860;2022-11-20T11:25:22;3.40;99.90
19734;DHT22;10018;51.230;7.860;2022-11-20T11:27:49;3.50;99.90
19734;DHT22;10018;51.230;7.860;2022-11-20T11:30:17;3.50;99.90
19734;DHT22;10018;51.230;7.860;2022-11-20T11:32:43;3.50;99.90
19734;DHT22;10018;51.230;7.860;2022-11-20T11:35:26;3.50;99.90
19734;DHT22;10018;51.230;7.860;2022-11-20T11:38:01;3.50;99.90
19734;DHT22;10018;51.230;7.860;2022-11-20T11:40:29;3.50;99.90
19734;DHT22;10018;51.230;7.860;2022-11-20T11:42:59;3.50;99.90
19734;DHT22;10018;51.230;7.860;2022-11-20T11:45:25;3.40;99.90
19734;DHT22;10018;51.230;7.860;2022-11-20T11:47:52;3.40;99.90
19734;DHT22;10018;51.230;7.860;2022-11-20T11:50:24;3.40;99.90
19734;DHT22;10018;51.230;7.860;2022-11-20T11:53:15;3.40;99.90
19734;DHT22;10018;51.230;7.860;2022-11-20T11:56:26;3.50;99.90
19734;DHT22;10018;51.230;7.860;2022-11-20T11:58:50;3.60;99.90
19734;DHT22;10018;51.230;7.860;2022-11-20T12:06:36;3.80;99.90
19734;DHT22;10018;51.230;7.860;2022-11-20T12:09:08;3.80;99.90
19734;DHT22;10018;51.230;7.860;2022-11-20T12:12:22;3.80;99.90
19734;DHT22;10018;51.230;7.860;2022-11-20T12:14:34;3.80;99.90
19734;DHT22;10018;51.230;7.860;2022-11-20T12:17:02;3.90;99.90
19734;DHT22;10018;51.230;7.860;2022-11-20T12:19:33;3.90;99.90
19734;DHT22;10018;51.230;7.860;2022-11-20T12:30:19;4.00;99.90
19734;DHT22;10018;51.230;7.860;2022-11-20T12:33:10;4.00;99.90
19734;DHT22;10018;51.230;7.860;2022-11-20T12:47:56;4.20;99.90
19734;DHT22;10018;51.230;7.860;2022-11-20T12:50:32;4.20;99.90
19734;DHT22;10018;51.230;7.860;2022-11-20T12:53:08;4.20;99.90
19734;DHT22;10018;51.230;7.860;2022-11-20T13:01:35;3.90;99.90
19734;DHT22;10018;51.230;7.860;2022-11-20T13:06:45;3.80;99.90
19734;DHT22;10018;51.230;7.860;2022-11-20T13:09:13;3.80;99.90
19734;DHT22;10018;51.230;7.860;2022-11-20T13:11:57;3.80;99.90
19734;DHT22;10018;51.230;7.860;2022-11-20T13:14:34;3.80;99.90
19734;DHT22;10018;51.230;7.860;2022-11-20T13:17:38;3.80;99.90
19734;DHT22;10018;51.230;7.860;2022-11-20T13:20:04;3.80;99.90
19734;DHT22;10018;51.230;7.860;2022-11-20T13:22:46;3.70;99.90
19734;DHT22;10018;51.230;7.860;2022-11-20T13:25:31;3.70;99.90
19734;DHT22;10018;51.230;7.860;2022-11-20T13:27:59;3.80;99.90
19734;DHT22;10018;51.230;7.860;2022-11-20T13:30:27;3.70;99.90
19734;DHT22;10018;51.230;7.860;2022-11-20T13:33:07;3.70;99.90
19734;DHT22;10018;51.230;7.860;2022-11-20T13:35:36;3.70;99.90
19734;DHT22;10018;51.230;7.860;2022-11-20T13:40:29;3.60;99.90
19734;DHT22;10018;51.230;7.860;2022-11-20T13:46:05;3.60;99.90
19734;DHT22;10018;51.230;7.860;2022-11-20T13:48:41;3.60;99.90
19734;DHT22;10018;51.230;7.860;2022-11-20T13:51:33;3.60;99.90
19734;DHT22;10018;51.230;7.860;2022-11-20T13:57:42;3.70;99.90
19734;DHT22;10018;51.230;7.860;2022-11-20T13:59:46;3.70;99.90
19734;DHT22;10018;51.230;7.860;2022-11-20T14:02:15;3.70;99.90
19734;DHT22;10018;51.230;7.860;2022-11-20T14:05:14;3.70;99.90
19734;DHT22;10018;51.230;7.860;2022-11-20T14:07:43;3.70;99.90
19734;DHT22;10018;51.230;7.860;2022-11-20T14:10:29;3.70;99.90
19734;DHT22;10018;51.230;7.860;2022-11-20T14:12:55;3.70;99.90
19734;DHT22;10018;51.230;7.860;2022-11-20T14:15:32;3.70;99.90
19734;DHT22;10018;51.230;7.860;2022-11-20T14:17:58;3.70;99.90
19734;DHT22;10018;51.230;7.860;2022-11-20T14:20:29;3.70;99.90
19734;DHT22;10018;51.230;7.860;2022-11-20T14:22:56;3.70;99.90
19734;DHT22;10018;51.230;7.860;2022-11-20T14:25:26;3.70;99.90
19734;DHT22;10018;51.230;7.860;2022-11-20T14:28:00;3.70;99.90
19734;DHT22;10018;51.230;7.860;2022-11-20T14:30:43;3.70;99.90
19734;DHT22;10018;51.230;7.860;2022-11-20T14:33:11;3.70;99.90
19734;DHT22;10018;51.230;7.860;2022-11-20T14:35:44;3.60;99.90
19734;DHT22;10018;51.230;7.860;2022-11-20T14:38:13;3.60;99.90
19734;DHT22;10018;51.230;7.860;2022-11-20T14:40:39;3.60;99.90
19734;DHT22;10018;51.230;7.860;2022-11-20T14:43:26;3.50;99.90
19734;DHT22;10018;51.230;7.860;2022-11-20T14:46:24;3.50;99.90
19734;DHT22;10018;51.230;7.860;2022-11-20T14:48:53;3.60;99.90
19734;DHT22;10018;51.230;7.860;2022-11-20T14:54:11;3.60;99.90
19734;DHT22;10018;51.230;7.860;2022-11-20T14:56:37;3.60;99.90
19734;DHT22;10018;51.230;7.860;2022-11-20T14:59:03;3.50;99.90
19734;DHT22;10018;51.230;7.860;2022-11-20T15:01:29;3.50;99.90
19734;DHT22;10018;51.230;7.860;2022-11-20T15:04:11;3.50;99.90
19734;DHT22;10018;51.230;7.860;2022-11-20T15:06:37;3.40;99.90
19734;DHT22;10018;51.230;7.860;2022-11-20T15:09:13;3.30;99.90
19734;DHT22;10018;51.230;7.860;2022-11-20T15:11:39;3.30;99.90
19734;DHT22;10018;51.230;7.860;2022-11-20T15:14:15;3.30;99.90
19734;DHT22;10018;51.230;7.860;2022-11-20T15:16:41;3.20;99.90
19734;DHT22;10018;51.230;7.860;2022-11-20T15:19:17;3.20;99.90
19734;DHT22;10018;51.230;7.860;2022-11-20T15:21:43;3.20;99.90
19734;DHT22;10018;51.230;7.860;2022-11-20T15:24:09;3.20;99.90
19734;DHT22;10018;51.230;7.860;2022-11-20T15:26:35;3.20;99.90
19734;DHT22;10018;51.230;7.860;2022-11-20T15:29:02;3.20;99.90
19734;DHT22;10018;51.230;7.860;2022-11-20T15:31:28;3.10;99.90
19734;DHT22;10018;51.230;7.860;2022-11-20T15:33:53;3.10;99.90
19734;DHT22;10018;51.230;7.860;2022-11-20T15:36:19;3.10;99.90
19734;DHT22;10018;51.230;7.860;2022-11-20T15:38:44;3.10;99.90
19734;DHT22;10018;51.230;7.860;2022-11-20T15:41:10;3.10;99.90
19734;DHT22;10018;51.230;7.860;2022-11-20T15:43:35;3.10;99.90
19734;DHT22;10018;51.230;7.860;2022-11-20T15:46:02;3.10;99.90
19734;DHT22;10018;51.230;7.860;2022-11-20T15:48:43;3.10;99.90
19734;DHT22;10018;51.230;7.860;2022-11-20T15:53:35;3.20;99.90
19734;DHT22;10018;51.230;7.860;2022-11-20T15:56:01;3.20;99.90
19734;DHT22;10018;51.230;7.860;2022-11-20T15:58:26;3.10;99.90
19734;DHT22;10018;51.230;7.860;2022-11-20T16:00:52;3.10;99.90
19734;DHT22;10018;51.230;7.860;2022-11-20T16:03:18;3.10;99.90
19734;DHT22;10018;51.230;7.860;2022-11-20T16:05:44;3.10;99.90
19734;DHT22;10018;51.230;7.860;2022-11-20T16:08:10;3.10;99.90
19734;DHT22;10018;51.230;7.860;2022-11-20T16:10:36;3.00;99.90
19734;DHT22;10018;51.230;7.860;2022-11-20T16:13:02;3.10;99.90
19734;DHT22;10018;51.230;7.860;2022-11-20T16:15:51;3.10;99.90
19734;DHT22;10018;51.230;7.860;2022-11-20T16:18:19;3.10;99.90
19734;DHT22;10018;51.230;7.860;2022-11-20T16:20:47;3.10;99.90
19734;DHT22;10018;51.230;7.860;2022-11-20T16:23:13;3.10;99.90
19734;DHT22;10018;51.230;7.860;2022-11-20T16:25:39;3.10;99.90
19734;DHT22;10018;51.230;7.860;2022-11-20T16:28:05;3.10;99.90
19734;DHT22;10018;51.230;7.860;2022-11-20T16:30:31;3.10;99.90
19734;DHT22;10018;51.230;7.860;2022-11-20T16:32:58;3.10;99.90
19734;DHT22;10018;51.230;7.860;2022-11-20T16:35:25;3.10;99.90
19734;DHT22;10018;51.230;7.860;2022-11-20T16:37:52;3.10;99.90
19734;DHT22;10018;51.230;7.860;2022-11-20T16:40:17;3.10;99.90
19734;DHT22;10018;51.230;7.860;2022-11-20T16:42:43;3.10;99.90
19734;DHT22;10018;51.230;7.860;2022-11-20T16:45:09;3.10;99.90
19734;DHT22;10018;51.230;7.860;2022-11-20T16:47:34;3.20;99.90
19734;DHT22;10018;51.230;7.860;2022-11-20T16:50:01;3.20;99.90
19734;DHT22;10018;51.230;7.860;2022-11-20T16:52:27;3.20;99.90
19734;DHT22;10018;51.230;7.860;2022-11-20T16:54:52;3.20;99.90
19734;DHT22;10018;51.230;7.860;2022-11-20T16:57:18;3.20;99.90
19734;DHT22;10018;51.230;7.860;2022-11-20T16:59:44;3.20;99.90
19734;DHT22;10018;51.230;7.860;2022-11-20T17:02:09;3.20;99.90
19734;DHT22;10018;51.230;7.860;2022-11-20T17:04:36;3.20;99.90